Time;durP1;ratioP1;P1;durP2;ratioP2;P2;SDS_P1;SDS_P2;PMS_P1;PMS_P2;Temp;Humidity;BMP_temperature;BMP_pressure;BME280_temperature;BME280_humidity;BME280_pressure;Samples;Min_cycle;Max_cycle;Signal;HPM_P1;HPM_P2
2022/05/07 00:01:10;;;;;;;2.62;2.33;;;8.20;84.40;;;;;;1908991;75;21093;-56
2022/05/07 00:03:39;;;;;;;2.30;1.98;;;8.30;84.40;;;;;;1908964;75;21023;-56
2022/05/07 00:06:09;;;;;;;3.75;1.60;;;8.20;84.30;;;;;;1909086;75;21426;-56
2022/05/07 00:08:38;;;;;;;3.67;1.87;;;8.20;84.40;;;;;;1908969;75;21031;-56
2022/05/07 00:11:07;;;;;;;3.42;2.05;;;8.20;84.30;;;;;;1909033;75;21089;-56
2022/05/07 00:13:37;;;;;;;2.52;1.90;;;8.20;84.40;;;;;;1909000;75;21106;-56
2022/05/07 00:18:54;;;;;;;3.87;1.70;;;8.20;84.50;;;;;;1909125;75;21043;-56
2022/05/07 00:21:23;;;;;;;2.47;1.67;;;8.20;84.60;;;;;;1909059;75;21035;-56
2022/05/07 00:23:52;;;;;;;1.90;1.42;;;8.20;84.60;;;;;;1909108;75;21088;-56
2022/05/07 00:26:22;;;;;;;2.12;1.82;;;8.20;84.70;;;;;;1909183;75;21473;-56
2022/05/07 00:28:51;;;;;;;1.72;1.37;;;8.20;84.70;;;;;;1909199;75;21109;-56
2022/05/07 00:31:21;;;;;;;3.30;1.35;;;8.20;84.80;;;;;;1909188;75;21007;-55
2022/05/07 00:33:50;;;;;;;3.58;1.87;;;8.20;85.00;;;;;;1909038;75;21066;-56
2022/05/07 00:36:19;;;;;;;3.72;1.42;;;8.10;84.80;;;;;;1909164;75;21039;-56
2022/05/07 00:38:49;;;;;;;1.50;1.32;;;8.20;85.00;;;;;;1909187;75;21034;-56
2022/05/07 00:41:18;;;;;;;3.12;2.30;;;8.10;85.10;;;;;;1908983;75;21035;-56
2022/05/07 00:43:47;;;;;;;5.10;2.12;;;8.10;85.00;;;;;;1909121;75;21128;-56
2022/05/07 00:46:18;;;;;;;2.80;1.67;;;8.10;85.00;;;;;;1909138;75;21027;-56
2022/05/07 00:48:47;;;;;;;2.62;2.00;;;8.10;85.00;;;;;;1909176;75;21155;-56
2022/05/07 00:51:34;;;;;;;2.05;1.37;;;8.10;85.00;;;;;;1909035;75;21030;-56
2022/05/07 00:54:10;;;;;;;3.33;1.57;;;8.10;85.50;;;;;;1909246;75;21042;-56
2022/05/07 00:56:40;;;;;;;5.10;2.25;;;8.10;85.00;;;;;;1909151;75;21031;-56
2022/05/07 00:59:10;;;;;;;2.25;1.30;;;8.10;85.00;;;;;;1909081;75;21047;-56
2022/05/07 01:01:40;;;;;;;2.65;1.60;;;8.10;85.10;;;;;;1909080;75;21035;-56
2022/05/07 01:04:10;;;;;;;4.58;2.02;;;8.10;85.30;;;;;;1909086;75;21089;-56
2022/05/07 01:06:41;;;;;;;3.98;2.20;;;8.10;85.30;;;;;;1909065;75;21050;-56
2022/05/07 01:09:12;;;;;;;3.27;1.72;;;8.10;85.20;;;;;;1909132;75;21100;-56
2022/05/07 01:11:42;;;;;;;3.12;2.20;;;8.10;85.30;;;;;;1909076;75;21101;-55
2022/05/07 01:14:11;;;;;;;2.42;1.82;;;8.10;85.30;;;;;;1905360;75;21113;-56
2022/05/07 01:16:41;;;;;;;4.67;1.95;;;8.10;85.40;;;;;;1904079;75;21089;-56
2022/05/07 01:19:11;;;;;;;3.77;1.35;;;8.10;85.30;;;;;;1903979;75;21051;-56
2022/05/07 01:21:42;;;;;;;3.20;1.70;;;8.10;85.30;;;;;;1903877;75;21091;-56
2022/05/07 01:24:11;;;;;;;3.37;1.90;;;8.10;85.30;;;;;;1904077;75;21015;-56
2022/05/07 01:26:41;;;;;;;2.45;2.10;;;8.10;85.30;;;;;;1904100;75;21027;-56
2022/05/07 01:29:10;;;;;;;2.60;1.57;;;8.10;85.20;;;;;;1904142;75;21039;-56
2022/05/07 01:31:41;;;;;;;2.72;1.82;;;8.10;85.20;;;;;;1903803;74;21153;-56
2022/05/07 01:34:10;;;;;;;4.08;1.47;;;8.10;85.10;;;;;;1904002;75;21051;-56
2022/05/07 01:36:41;;;;;;;2.20;1.90;;;8.10;85.10;;;;;;1904243;75;21458;-56
2022/05/07 01:39:12;;;;;;;5.80;1.30;;;8.10;85.50;;;;;;1903320;75;21091;-56
2022/05/07 01:41:43;;;;;;;2.67;1.87;;;8.10;84.80;;;;;;1904105;75;21094;-56
2022/05/07 01:44:12;;;;;;;4.37;1.87;;;8.00;85.00;;;;;;1904027;75;21027;-56
2022/05/07 01:49:31;;;;;;;3.52;1.17;;;8.10;84.90;;;;;;1903700;75;21078;-56
2022/05/07 01:52:00;;;;;;;3.55;1.25;;;8.10;84.80;;;;;;1904065;75;21051;-56
2022/05/07 01:54:31;;;;;;;2.90;1.57;;;8.10;84.50;;;;;;1904122;75;21094;-56
2022/05/07 01:57:01;;;;;;;4.47;1.80;;;8.10;84.50;;;;;;1904033;75;21031;-56
2022/05/07 01:59:30;;;;;;;8.78;1.50;;;8.10;84.50;;;;;;1903957;75;21034;-56
2022/05/07 02:02:01;;;;;;;7.72;1.65;;;8.10;84.10;;;;;;1904032;75;21095;-56
2022/05/07 02:04:31;;;;;;;2.92;1.67;;;8.10;84.20;;;;;;1903977;75;21539;-56
2022/05/07 02:07:02;;;;;;;7.33;1.90;;;8.10;83.70;;;;;;1904022;75;21066;-56
2022/05/07 02:09:31;;;;;;;2.20;1.95;;;8.10;84.40;;;;;;1903977;75;21034;-56
2022/05/07 02:12:00;;;;;;;3.52;1.42;;;8.00;83.70;;;;;;1904206;75;21009;-57
2022/05/07 02:14:32;;;;;;;3.87;2.12;;;8.10;83.90;;;;;;1903166;74;21146;-57
2022/05/07 02:17:03;;;;;;;5.37;1.40;;;8.00;83.70;;;;;;1906494;75;21055;-57
2022/05/07 02:19:32;;;;;;;2.30;1.65;;;8.00;83.70;;;;;;1909181;75;21063;-56
2022/05/07 02:22:02;;;;;;;2.45;1.82;;;8.00;83.60;;;;;;1909097;75;21081;-56
2022/05/07 02:24:32;;;;;;;2.52;1.90;;;8.00;83.70;;;;;;1909186;75;21031;-56
2022/05/07 02:27:03;;;;;;;2.12;1.35;;;8.00;83.80;;;;;;1909114;75;21028;-56
2022/05/07 02:29:32;;;;;;;5.20;1.37;;;8.00;83.60;;;;;;1909086;75;21212;-56
2022/05/07 02:32:05;;;;;;;5.35;2.00;;;8.00;83.50;;;;;;1909102;75;21031;-56
2022/05/07 02:34:37;;;;;;;3.22;1.20;;;8.00;83.40;;;;;;1908801;75;21087;-57
2022/05/07 02:37:08;;;;;;;2.00;1.15;;;8.00;83.40;;;;;;1908892;75;21152;-56
2022/05/07 02:39:38;;;;;;;3.35;1.65;;;8.00;83.30;;;;;;1909157;75;21089;-56
2022/05/07 02:44:55;;;;;;;2.20;1.52;;;8.00;83.30;;;;;;1909131;75;21047;-56
2022/05/07 02:47:25;;;;;;;4.40;2.00;;;8.00;83.10;;;;;;1909105;75;21113;-56
2022/05/07 02:49:55;;;;;;;4.00;2.58;;;8.00;83.30;;;;;;1909101;75;21101;-56
2022/05/07 02:52:24;;;;;;;3.10;1.35;;;8.10;83.40;;;;;;1909057;75;21031;-56
2022/05/07 02:54:53;;;;;;;3.42;2.05;;;8.10;82.90;;;;;;1909033;75;21085;-57
2022/05/07 02:57:23;;;;;;;2.15;1.70;;;8.10;83.10;;;;;;1909038;75;21034;-56
2022/05/07 02:59:52;;;;;;;6.35;1.65;;;8.10;83.10;;;;;;1909040;75;21082;-56
2022/05/07 03:02:21;;;;;;;5.12;1.50;;;8.20;83.10;;;;;;1909051;75;21097;-56
2022/05/07 03:04:52;;;;;;;1.72;1.55;;;8.20;82.90;;;;;;1908949;75;21449;-56
2022/05/07 03:07:22;;;;;;;3.42;1.30;;;8.20;82.90;;;;;;1909041;75;21055;-56
2022/05/07 03:09:51;;;;;;;3.05;1.42;;;8.20;82.80;;;;;;1909017;75;21050;-56
2022/05/07 03:12:21;;;;;;;1.40;1.07;;;8.20;82.70;;;;;;1909042;75;21031;-56
2022/05/07 03:14:50;;;;;;;3.00;1.70;;;8.30;82.80;;;;;;1909097;75;21039;-56
2022/05/07 03:17:19;;;;;;;1.98;1.37;;;8.30;83.00;;;;;;1909216;75;21046;-56
2022/05/07 03:19:49;;;;;;;3.17;1.80;;;8.30;82.90;;;;;;1889118;76;21104;-56
2022/05/07 03:22:19;;;;;;;4.42;2.22;;;8.30;82.90;;;;;;1889174;76;21042;-56
2022/05/07 03:24:48;;;;;;;2.92;1.80;;;8.30;83.10;;;;;;1889070;76;21069;-56
2022/05/07 03:27:17;;;;;;;2.27;1.80;;;8.30;82.80;;;;;;1889074;76;21014;-56
2022/05/07 03:29:46;;;;;;;3.55;1.80;;;8.40;82.90;;;;;;1889255;76;21038;-56
2022/05/07 03:32:17;;;;;;;3.72;2.10;;;8.40;82.70;;;;;;1888557;76;21088;-56
2022/05/07 03:34:48;;;;;;;5.05;2.02;;;8.40;82.80;;;;;;1887807;76;21559;-56
2022/05/07 03:37:17;;;;;;;6.28;2.80;;;8.40;82.80;;;;;;1889037;76;21172;-56
2022/05/07 03:39:47;;;;;;;2.62;1.70;;;8.40;82.80;;;;;;1889073;76;21074;-56
2022/05/07 03:42:20;;;;;;;4.33;2.02;;;8.50;82.70;;;;;;1889174;76;21061;-56
2022/05/07 03:44:49;;;;;;;5.72;1.30;;;8.50;82.50;;;;;;1889139;76;21030;-56
2022/05/07 03:47:18;;;;;;;1.87;1.37;;;8.50;82.20;;;;;;1889161;76;21046;-56
2022/05/07 03:49:48;;;;;;;4.85;1.70;;;8.50;82.30;;;;;;1889248;76;21146;-56
2022/05/07 03:55:06;;;;;;;1.87;1.50;;;8.60;82.20;;;;;;1888631;76;21057;-56
2022/05/07 03:57:36;;;;;;;6.40;2.80;;;8.50;82.20;;;;;;1889222;76;21054;-56
2022/05/07 04:00:07;;;;;;;2.10;1.62;;;8.50;82.40;;;;;;1889010;76;21112;-56
2022/05/07 04:02:38;;;;;;;3.35;1.85;;;8.60;82.50;;;;;;1887710;76;21100;-56
2022/05/07 04:05:09;;;;;;;4.37;2.00;;;8.60;82.40;;;;;;1889047;76;21053;-56
2022/05/07 04:07:38;;;;;;;4.67;1.80;;;8.60;82.10;;;;;;1889103;76;21054;-56
2022/05/07 04:10:10;;;;;;;5.30;2.45;;;8.60;82.00;;;;;;1888576;76;21115;-56
2022/05/07 04:12:50;;;;;;;5.10;2.22;;;8.70;82.20;;;;;;1888418;76;21115;-56
2022/05/07 04:15:21;;;;;;;2.08;1.42;;;8.70;82.20;;;;;;1889049;76;21127;-56
2022/05/07 04:17:53;;;;;;;6.50;2.62;;;8.70;82.00;;;;;;1889196;76;21018;-57
2022/05/07 04:20:23;;;;;;;11.45;3.25;;;8.70;82.40;;;;;;1903366;75;21063;-56
2022/05/07 04:22:54;;;;;;;2.83;1.82;;;8.80;82.30;;;;;;1903188;74;21007;-57
2022/05/07 04:25:23;;;;;;;2.22;1.70;;;8.80;82.40;;;;;;1904099;75;21023;-56
2022/05/07 04:27:53;;;;;;;4.55;2.35;;;8.80;82.70;;;;;;1904159;75;21050;-56
2022/05/07 04:30:25;;;;;;;9.83;1.85;;;8.80;82.30;;;;;;1904054;75;21478;-57
2022/05/07 04:32:55;;;;;;;1.72;1.30;;;8.80;82.80;;;;;;1904228;75;20995;-56
2022/05/07 04:35:24;;;;;;;5.10;1.40;;;8.80;83.10;;;;;;1904078;75;21011;-56
2022/05/07 04:37:53;;;;;;;1.87;1.57;;;8.80;82.20;;;;;;1904221;75;21007;-56
2022/05/07 04:40:23;;;;;;;5.33;1.85;;;8.90;82.10;;;;;;1904032;75;21007;-56
2022/05/07 04:42:54;;;;;;;2.77;1.60;;;8.90;82.10;;;;;;1904097;75;21453;-56
2022/05/07 04:45:25;;;;;;;1.98;1.22;;;9.00;81.90;;;;;;1904019;75;21100;-56
2022/05/07 04:48:02;;;;;;;2.22;1.47;;;9.00;81.50;;;;;;1903520;74;21079;-56
2022/05/07 04:50:33;;;;;;;4.42;1.85;;;9.00;81.90;;;;;;1903735;75;21071;-56
2022/05/07 04:53:19;;;;;;;3.05;1.67;;;9.00;81.80;;;;;;1813863;78;21069;-57
2022/05/07 04:55:50;;;;;;;2.67;1.40;;;9.10;81.40;;;;;;1885439;75;21088;-57
2022/05/07 04:58:21;;;;;;;2.95;1.25;;;9.10;81.70;;;;;;1913585;75;21042;-57
2022/05/07 05:00:52;;;;;;;3.55;1.82;;;9.10;81.20;;;;;;1913514;75;21026;-58
2022/05/07 05:03:23;;;;;;;2.80;1.92;;;9.20;80.90;;;;;;1913063;75;21119;-58
2022/05/07 05:06:09;;;;;;;4.65;1.50;;;9.20;81.50;;;;;;1912631;75;21093;-57
2022/05/07 05:08:49;;;;;;;4.50;1.90;;;9.30;81.10;;;;;;1862850;75;21030;-57
2022/05/07 05:11:19;;;;;;;1.65;1.45;;;9.40;81.20;;;;;;1913460;75;21089;-57
2022/05/07 05:13:48;;;;;;;1.67;1.50;;;9.40;81.10;;;;;;1913467;74;21070;-57
2022/05/07 05:16:18;;;;;;;3.35;2.17;;;9.50;81.30;;;;;;1913546;75;21125;-58
2022/05/07 05:18:49;;;;;;;6.47;2.25;;;9.60;81.70;;;;;;1913035;74;21089;-57
2022/05/07 05:21:20;;;;;;;10.28;3.00;;;9.60;81.50;;;;;;1913238;75;21116;-57
2022/05/07 05:23:51;;;;;;;5.15;2.10;;;9.70;81.60;;;;;;1912426;75;21007;-57
2022/05/07 05:26:21;;;;;;;3.40;2.25;;;9.80;81.20;;;;;;1913495;75;21031;-57
2022/05/07 05:28:52;;;;;;;2.20;1.27;;;9.90;80.50;;;;;;1911259;75;21055;-57
2022/05/07 05:31:23;;;;;;;1.50;1.40;;;9.90;80.10;;;;;;1913473;75;21026;-57
2022/05/07 05:33:54;;;;;;;1.50;1.35;;;10.00;79.80;;;;;;1911945;75;21042;-58
2022/05/07 05:36:27;;;;;;;4.95;2.37;;;10.00;80.00;;;;;;1911741;75;21030;-57
2022/05/07 05:38:56;;;;;;;1.62;1.50;;;10.00;80.00;;;;;;1913497;75;21453;-57
2022/05/07 05:41:27;;;;;;;2.60;2.25;;;10.10;79.60;;;;;;1913355;75;21175;-58
2022/05/07 05:43:57;;;;;;;5.17;1.80;;;10.10;79.60;;;;;;1913422;75;21027;-57
2022/05/07 05:46:27;;;;;;;1.70;1.35;;;10.20;79.60;;;;;;1913448;75;21100;-58
2022/05/07 05:48:57;;;;;;;3.47;2.20;;;10.20;79.00;;;;;;1913495;75;21031;-57
2022/05/07 05:51:27;;;;;;;1.75;1.65;;;10.30;79.10;;;;;;1880602;75;21097;-57
2022/05/07 05:53:57;;;;;;;3.10;2.00;;;10.30;78.50;;;;;;1913502;75;20999;-57
2022/05/07 05:56:27;;;;;;;2.40;2.05;;;10.40;78.40;;;;;;1913505;75;21026;-57
2022/05/07 05:58:58;;;;;;;3.15;1.98;;;10.40;78.40;;;;;;1913323;75;21340;-57
2022/05/07 06:01:29;;;;;;;9.80;3.20;;;10.40;78.20;;;;;;1912849;75;21041;-57
2022/05/07 06:04:19;;;;;;;5.35;2.52;;;10.50;78.30;;;;;;1912677;74;21147;-57
2022/05/07 06:06:49;;;;;;;6.25;1.98;;;10.50;78.70;;;;;;1913440;75;21066;-57
2022/05/07 06:09:21;;;;;;;3.62;2.95;;;10.60;78.10;;;;;;1913404;75;21110;-58
2022/05/07 06:11:51;;;;;;;3.45;2.30;;;10.60;78.30;;;;;;1913487;74;21129;-57
2022/05/07 06:14:21;;;;;;;2.83;1.72;;;10.60;77.50;;;;;;1913456;75;21093;-57
2022/05/07 06:16:51;;;;;;;5.28;2.33;;;10.60;77.70;;;;;;1913494;75;21003;-57
2022/05/07 06:19:21;;;;;;;3.75;1.92;;;10.60;78.30;;;;;;1913344;75;21026;-57
2022/05/07 06:21:52;;;;;;;6.70;2.85;;;10.60;78.10;;;;;;1912867;75;21116;-57
2022/05/07 06:27:31;;;;;;;4.55;2.50;;;10.60;78.10;;;;;;1913258;75;21050;-57
2022/05/07 06:30:03;;;;;;;4.25;2.50;;;10.60;78.10;;;;;;1911258;75;21041;-57
2022/05/07 06:32:44;;;;;;;3.08;1.70;;;10.70;78.40;;;;;;1913359;75;21054;-57
2022/05/07 06:35:11;;;;;;;4.03;1.85;;;10.70;78.30;;;;;;1912389;75;21105;-57
2022/05/07 06:37:48;;;;;;;3.20;1.95;;;10.80;78.00;;;;;;1907400;75;21046;-57
2022/05/07 06:40:14;;;;;;;6.33;2.20;;;10.80;77.90;;;;;;1912955;75;21031;-57
2022/05/07 06:42:45;;;;;;;1.82;1.62;;;10.80;78.00;;;;;;1912909;74;21034;-57
2022/05/07 06:45:16;;;;;;;1.50;1.27;;;10.90;77.80;;;;;;1912231;75;21104;-57
2022/05/07 06:47:46;;;;;;;2.02;1.50;;;10.90;78.00;;;;;;1913523;75;21135;-57
2022/05/07 06:50:15;;;;;;;1.90;1.50;;;11.00;77.60;;;;;;1913420;75;21084;-57
2022/05/07 06:52:46;;;;;;;2.22;1.90;;;11.10;77.10;;;;;;1913403;74;21031;-57
2022/05/07 06:55:19;;;;;;;4.20;2.22;;;11.10;77.40;;;;;;1913370;74;21089;-57
2022/05/07 06:57:49;;;;;;;3.72;2.17;;;11.10;77.80;;;;;;1913431;75;21136;-57
2022/05/07 07:00:18;;;;;;;2.40;1.67;;;11.20;77.90;;;;;;1913524;75;21084;-57
2022/05/07 07:02:49;;;;;;;3.77;2.12;;;11.30;77.80;;;;;;1913316;75;21023;-57
2022/05/07 07:05:19;;;;;;;4.75;1.40;;;11.40;77.70;;;;;;1913512;75;21952;-57
2022/05/07 07:07:48;;;;;;;1.87;1.47;;;11.60;77.60;;;;;;1913370;75;21030;-57
2022/05/07 07:10:18;;;;;;;2.87;1.80;;;11.70;77.20;;;;;;1913487;75;21043;-57
2022/05/07 07:12:47;;;;;;;2.30;1.80;;;11.70;76.70;;;;;;1913447;75;21035;-57
2022/05/07 07:15:16;;;;;;;3.40;1.60;;;11.80;76.10;;;;;;1913396;75;21034;-57
2022/05/07 07:17:45;;;;;;;4.30;1.95;;;11.80;76.30;;;;;;1913409;75;21060;-57
2022/05/07 07:20:15;;;;;;;4.92;1.80;;;11.80;76.80;;;;;;1914759;75;21645;-57
2022/05/07 07:22:46;;;;;;;3.90;1.47;;;11.90;76.80;;;;;;1921762;75;21023;-57
2022/05/07 07:25:16;;;;;;;1.22;1.12;;;11.90;76.60;;;;;;1921751;75;21026;-57
2022/05/07 07:27:45;;;;;;;7.35;1.82;;;11.90;76.10;;;;;;1921923;75;21026;-57
2022/05/07 07:30:15;;;;;;;3.22;1.82;;;12.10;76.50;;;;;;1921702;75;21030;-57
2022/05/07 07:32:44;;;;;;;2.60;1.50;;;12.10;76.20;;;;;;1921837;75;21080;-57
2022/05/07 07:35:13;;;;;;;1.70;1.20;;;12.10;76.10;;;;;;1921668;74;21559;-57
2022/05/07 07:37:45;;;;;;;4.15;1.57;;;12.20;75.70;;;;;;1921772;75;21021;-57
2022/05/07 07:40:14;;;;;;;3.22;1.52;;;12.20;76.10;;;;;;1921816;75;21034;-57
2022/05/07 07:42:44;;;;;;;3.92;2.10;;;12.30;75.80;;;;;;1921750;75;21030;-58
2022/05/07 07:48:07;;;;;;;4.80;2.00;;;12.40;76.20;;;;;;1921782;75;21113;-57
2022/05/07 07:50:34;;;;;;;3.10;2.05;;;12.40;75.70;;;;;;1919917;75;21030;-57
2022/05/07 07:53:08;;;;;;;7.72;2.80;;;12.40;75.50;;;;;;1921835;75;21104;-57
2022/05/07 07:55:39;;;;;;;6.00;2.02;;;12.50;74.90;;;;;;1921982;75;21461;-57
2022/05/07 07:58:10;;;;;;;1.20;0.95;;;12.50;75.00;;;;;;1921861;75;21062;-57
2022/05/07 08:00:42;;;;;;;8.48;2.00;;;12.50;74.50;;;;;;1921901;75;21077;-57
2022/05/07 08:03:15;;;;;;;5.40;2.10;;;12.40;74.80;;;;;;1921722;75;21038;-57
2022/05/07 08:05:45;;;;;;;14.47;4.05;;;12.40;74.90;;;;;;1921715;75;21030;-57
2022/05/07 08:13:55;;;;;;;4.55;1.80;;;12.40;74.70;;;;;;1921786;75;21151;-57
2022/05/07 08:16:22;;;;;;;3.45;2.25;;;12.50;75.00;;;;;;1920504;75;21050;-58
2022/05/07 08:18:52;;;;;;;1.12;1.02;;;12.40;75.60;;;;;;1921764;75;21023;-57
2022/05/07 08:21:22;;;;;;;2.22;1.65;;;12.50;74.80;;;;;;1918439;74;21140;-57
2022/05/07 08:23:51;;;;;;;3.47;1.92;;;12.50;74.60;;;;;;1913574;75;21023;-57
2022/05/07 08:26:21;;;;;;;2.08;1.42;;;12.50;74.90;;;;;;1913596;75;21027;-57
2022/05/07 08:28:55;;;;;;;6.60;2.40;;;12.50;75.00;;;;;;1913538;75;21066;-57
2022/05/07 08:31:22;;;;;;;3.30;2.05;;;12.50;75.40;;;;;;1911440;75;21599;-58
2022/05/07 08:33:54;;;;;;;2.00;1.70;;;12.60;74.50;;;;;;1913503;75;21035;-57
2022/05/07 08:36:23;;;;;;;3.20;2.50;;;12.60;74.30;;;;;;1913528;75;20995;-57
2022/05/07 08:38:53;;;;;;;1.77;1.67;;;12.70;74.90;;;;;;1913428;75;21100;-57
2022/05/07 08:41:22;;;;;;;2.92;2.05;;;12.80;74.50;;;;;;1913299;75;21023;-57
2022/05/07 08:43:52;;;;;;;2.35;1.95;;;12.90;74.60;;;;;;1913424;75;21027;-57
2022/05/07 08:46:21;;;;;;;3.20;1.55;;;13.00;73.60;;;;;;1913351;75;21031;-57
2022/05/07 08:48:51;;;;;;;2.87;1.90;;;13.00;73.70;;;;;;1913529;75;21075;-57
2022/05/07 08:51:21;;;;;;;1.80;1.70;;;13.00;73.40;;;;;;1913480;74;21031;-57
2022/05/07 08:53:53;;;;;;;2.72;2.05;;;13.10;73.50;;;;;;1913346;75;21093;-57
2022/05/07 08:56:23;;;;;;;3.47;1.65;;;13.20;73.00;;;;;;1913633;75;21535;-57
2022/05/07 08:58:53;;;;;;;8.70;2.33;;;13.20;73.20;;;;;;1913615;75;21027;-57
2022/05/07 09:01:23;;;;;;;3.72;2.35;;;13.20;73.00;;;;;;1913330;75;21059;-57
2022/05/07 09:03:53;;;;;;;7.08;3.40;;;13.20;72.80;;;;;;1913352;75;21050;-57
2022/05/07 09:06:26;;;;;;;4.30;2.17;;;13.20;72.60;;;;;;1913409;75;21011;-58
2022/05/07 09:08:57;;;;;;;3.67;1.85;;;13.30;72.30;;;;;;1913530;75;21023;-57
2022/05/07 09:11:26;;;;;;;1.90;1.35;;;13.30;71.50;;;;;;1913480;75;21035;-57
2022/05/07 09:14:06;;;;;;;2.67;1.52;;;13.30;72.30;;;;;;1913463;75;21101;-57
2022/05/07 09:16:40;;;;;;;5.67;3.12;;;13.30;72.50;;;;;;1913566;75;21042;-57
2022/05/07 09:19:24;;;;;;;1.75;1.47;;;13.30;73.00;;;;;;1913632;75;21039;-57
2022/05/07 09:21:55;;;;;;;1.87;1.65;;;13.40;72.30;;;;;;1913527;75;21063;-57
2022/05/07 09:24:24;;;;;;;4.15;2.42;;;13.40;72.60;;;;;;1911573;75;21077;-57
2022/05/07 09:26:56;;;;;;;2.62;2.35;;;13.40;71.80;;;;;;1913421;75;21031;-57
2022/05/07 09:29:29;;;;;;;4.58;2.30;;;13.50;71.80;;;;;;1913399;75;21507;-57
2022/05/07 09:32:09;;;;;;;6.12;2.50;;;13.40;71.10;;;;;;1913477;75;21101;-57
2022/05/07 09:37:36;;;;;;;3.08;1.62;;;13.50;71.70;;;;;;1913551;75;21040;-57
2022/05/07 09:40:07;;;;;;;2.98;2.00;;;13.50;71.70;;;;;;1913572;75;21469;-57
2022/05/07 09:42:38;;;;;;;4.05;1.65;;;13.50;71.90;;;;;;1913407;75;21030;-57
2022/05/07 09:45:09;;;;;;;4.37;1.98;;;13.50;71.60;;;;;;1913465;75;21007;-57
2022/05/07 09:47:39;;;;;;;3.15;2.17;;;13.50;71.90;;;;;;1913489;75;21042;-57
2022/05/07 09:50:43;;;;;;;2.80;2.02;;;13.50;71.30;;;;;;1913390;75;21148;-57
2022/05/07 09:58:28;;;;;;;3.35;1.92;;;13.60;72.00;;;;;;1913506;75;21039;-57
2022/05/07 10:01:20;;;;;;;8.20;2.58;;;13.60;71.50;;;;;;1913420;75;21030;-57
2022/05/07 10:04:15;;;;;;;11.93;2.83;;;13.60;71.30;;;;;;1913439;75;21043;-57
2022/05/07 10:06:56;;;;;;;2.17;2.00;;;13.60;71.10;;;;;;1913538;75;21046;-56
2022/05/07 10:09:39;;;;;;;8.48;2.52;;;13.60;71.70;;;;;;1913115;75;21097;-56
2022/05/07 10:12:10;;;;;;;4.78;2.05;;;13.60;71.30;;;;;;1913606;75;21485;-56
2022/05/07 10:14:40;;;;;;;5.28;1.62;;;13.70;71.30;;;;;;1913507;75;21050;-56
2022/05/07 10:17:13;;;;;;;5.30;1.32;;;13.80;71.50;;;;;;1913414;75;21097;-57
2022/05/07 10:19:49;;;;;;;2.35;2.08;;;13.90;71.50;;;;;;1913480;75;21088;-56
2022/05/07 10:22:25;;;;;;;2.70;1.65;;;13.90;71.40;;;;;;1913318;74;21067;-57
2022/05/07 10:25:08;;;;;;;2.92;2.37;;;13.90;70.20;;;;;;1911234;75;21595;-56
2022/05/07 10:27:38;;;;;;;3.77;1.95;;;13.90;70.60;;;;;;1913385;75;21003;-57
2022/05/07 10:30:09;;;;;;;2.22;1.95;;;13.90;71.50;;;;;;1913531;75;21085;-57
2022/05/07 10:32:59;;;;;;;1.80;1.57;;;13.90;71.00;;;;;;1913420;75;21026;-57
2022/05/07 10:35:55;;;;;;;3.12;2.83;;;13.90;70.60;;;;;;1873857;75;21054;-57
2022/05/07 10:38:38;;;;;;;3.02;1.95;;;13.90;71.30;;;;;;1913445;75;21131;-57
2022/05/07 10:41:16;;;;;;;2.37;1.85;;;13.90;70.70;;;;;;1913498;75;21038;-57
2022/05/07 10:43:50;;;;;;;3.77;2.00;;;13.90;70.50;;;;;;1849223;77;21513;-57
2022/05/07 10:46:25;;;;;;;3.30;2.13;;;13.90;70.50;;;;;;1911481;75;21026;-57
2022/05/07 10:48:59;;;;;;;3.40;1.87;;;13.80;70.60;;;;;;1910167;75;21279;-57
2022/05/07 10:51:39;;;;;;;3.83;2.25;;;13.70;71.10;;;;;;1913296;75;21047;-56
2022/05/07 10:54:19;;;;;;;1.75;1.60;;;13.80;71.10;;;;;;1912101;75;21096;-56
2022/05/07 10:56:53;;;;;;;6.28;2.12;;;13.80;70.90;;;;;;1913361;75;21462;-56
2022/05/07 10:59:23;;;;;;;3.75;2.10;;;13.80;71.50;;;;;;1913313;75;21022;-56
2022/05/07 11:01:54;;;;;;;3.65;2.30;;;13.90;71.80;;;;;;1913401;75;21088;-56
2022/05/07 11:04:24;;;;;;;5.62;1.92;;;13.90;72.20;;;;;;1911397;75;21469;-56
2022/05/07 11:06:54;;;;;;;9.50;4.05;;;14.00;71.50;;;;;;1913312;75;21030;-56
2022/05/07 11:09:27;;;;;;;6.15;3.00;;;14.00;71.40;;;;;;1913231;75;21026;-56
2022/05/07 11:11:57;;;;;;;3.00;2.02;;;14.10;72.10;;;;;;1913499;75;21031;-56
2022/05/07 11:14:32;;;;;;;3.87;1.62;;;14.10;71.20;;;;;;1913366;74;21080;-56
2022/05/07 11:17:06;;;;;;;5.53;1.90;;;14.20;70.20;;;;;;1913346;75;21034;-56
2022/05/07 11:19:37;;;;;;;4.92;3.58;;;14.10;69.90;;;;;;1913508;75;21242;-56
2022/05/07 11:22:14;;;;;;;3.17;1.72;;;14.10;70.40;;;;;;1913230;74;21035;-55
2022/05/07 11:24:41;;;;;;;3.42;1.90;;;14.10;70.50;;;;;;1855039;77;21180;-56
2022/05/07 11:27:11;;;;;;;12.85;2.62;;;14.10;70.60;;;;;;1913334;75;21034;-56
2022/05/07 11:29:41;;;;;;;1.72;1.55;;;14.10;70.90;;;;;;1913524;75;21027;-56
2022/05/07 11:32:12;;;;;;;9.23;2.33;;;14.10;71.00;;;;;;1913360;75;21050;-56
2022/05/07 11:34:42;;;;;;;1.95;1.72;;;14.10;71.30;;;;;;1913496;75;21038;-56
2022/05/07 11:37:17;;;;;;;1.77;1.55;;;14.10;71.50;;;;;;1913521;75;21067;-56
2022/05/07 11:39:57;;;;;;;4.17;1.87;;;14.10;70.40;;;;;;1913600;75;21108;-56
2022/05/07 11:42:35;;;;;;;2.25;1.27;;;13.90;70.90;;;;;;1913275;74;21024;-57
2022/05/07 11:45:29;;;;;;;3.40;1.85;;;13.80;70.00;;;;;;1913359;75;21465;-57
2022/05/07 11:48:05;;;;;;;11.78;2.85;;;13.70;70.80;;;;;;1913361;75;21112;-57
2022/05/07 11:50:43;;;;;;;3.37;2.20;;;13.70;70.50;;;;;;1913364;75;21097;-57
2022/05/07 11:53:18;;;;;;;6.55;1.80;;;13.70;71.30;;;;;;1913314;75;21023;-57
2022/05/07 11:55:49;;;;;;;3.85;1.70;;;13.90;70.50;;;;;;1912195;74;21043;-57
2022/05/07 11:58:22;;;;;;;8.25;2.60;;;13.90;70.00;;;;;;1913282;75;21026;-57
2022/05/07 12:00:54;;;;;;;5.00;2.20;;;13.90;70.10;;;;;;1913457;75;21128;-57
2022/05/07 12:03:25;;;;;;;4.28;2.05;;;13.90;70.40;;;;;;1913296;74;21043;-57
2022/05/07 12:05:57;;;;;;;2.52;1.92;;;13.90;70.60;;;;;;1913340;75;21026;-57
2022/05/07 12:08:34;;;;;;;5.03;2.50;;;13.90;70.90;;;;;;1913547;75;21027;-57
2022/05/07 12:11:04;;;;;;;4.40;2.60;;;13.90;70.80;;;;;;1913600;75;21022;-57
2022/05/07 12:13:35;;;;;;;3.65;3.02;;;13.90;71.00;;;;;;1913491;74;21035;-57
2022/05/07 12:18:52;;;;;;;5.20;2.15;;;14.00;70.70;;;;;;1913567;75;21055;-57
2022/05/07 12:29:50;;;;;;;5.90;1.82;;;13.90;69.20;;;;;;1913630;75;21112;-57
2022/05/07 12:32:21;;;;;;;3.92;1.75;;;13.90;68.60;;;;;;1913549;75;21019;-57
2022/05/07 12:34:50;;;;;;;4.97;2.00;;;13.90;68.60;;;;;;1913565;75;21114;-57
2022/05/07 12:37:20;;;;;;;2.95;1.60;;;13.80;68.50;;;;;;1913560;75;21003;-56
2022/05/07 12:39:50;;;;;;;1.40;1.25;;;13.80;68.70;;;;;;1913606;75;21058;-57
2022/05/07 12:42:19;;;;;;;4.97;2.15;;;13.70;68.30;;;;;;1913643;75;21081;-57
2022/05/07 12:44:49;;;;;;;1.30;1.20;;;13.70;68.70;;;;;;1913552;75;21047;-56
2022/05/07 12:47:18;;;;;;;4.25;2.22;;;13.70;68.20;;;;;;1913458;75;21030;-57
2022/05/07 12:49:48;;;;;;;5.05;1.90;;;13.70;68.80;;;;;;1913669;75;21104;-57
2022/05/07 12:52:17;;;;;;;4.12;1.75;;;13.60;68.80;;;;;;1913557;75;21132;-57
2022/05/07 12:54:47;;;;;;;3.75;2.10;;;13.60;69.40;;;;;;1913550;75;21023;-57
2022/05/07 12:57:16;;;;;;;3.67;1.92;;;13.50;69.00;;;;;;1913499;74;21097;-57
2022/05/07 12:59:46;;;;;;;3.58;1.82;;;13.50;69.10;;;;;;1913516;75;21096;-57
2022/05/07 13:02:16;;;;;;;3.72;2.20;;;13.50;69.20;;;;;;1913406;74;21096;-56
2022/05/07 13:04:45;;;;;;;9.58;3.62;;;13.50;69.90;;;;;;1913493;75;21108;-57
2022/05/07 13:07:14;;;;;;;4.10;1.57;;;13.40;69.00;;;;;;1913636;75;21026;-57
2022/05/07 13:09:44;;;;;;;6.12;3.17;;;13.40;68.50;;;;;;1913487;75;21026;-57
2022/05/07 13:12:13;;;;;;;7.65;2.85;;;13.40;69.00;;;;;;1913407;75;21096;-57
2022/05/07 13:14:43;;;;;;;4.97;1.95;;;13.40;69.60;;;;;;1913569;75;21026;-56
2022/05/07 13:17:13;;;;;;;3.02;2.27;;;13.50;69.10;;;;;;1913463;75;21010;-57
2022/05/07 13:19:42;;;;;;;5.37;1.85;;;13.50;69.20;;;;;;1913574;75;21023;-57
2022/05/07 13:22:12;;;;;;;2.12;1.72;;;13.40;70.00;;;;;;1913510;74;21059;-56
2022/05/07 13:24:42;;;;;;;2.20;1.65;;;13.40;69.50;;;;;;1918335;74;21101;-56
2022/05/07 13:27:11;;;;;;;4.65;1.40;;;13.40;69.20;;;;;;1921766;75;21003;-57
2022/05/07 13:29:40;;;;;;;6.80;2.25;;;13.40;69.30;;;;;;1921744;75;21084;-56
2022/05/07 13:32:10;;;;;;;2.25;1.90;;;13.40;69.80;;;;;;1921708;75;21027;-57
2022/05/07 13:34:39;;;;;;;2.50;1.67;;;13.30;70.00;;;;;;1921711;75;21034;-57
2022/05/07 13:37:10;;;;;;;2.58;2.02;;;13.30;70.30;;;;;;1921686;75;21101;-57
2022/05/07 13:39:40;;;;;;;5.90;2.02;;;13.20;70.90;;;;;;1921855;75;21084;-57
2022/05/07 13:42:14;;;;;;;4.45;1.92;;;13.10;71.50;;;;;;1921791;75;21111;-57
2022/05/07 13:44:40;;;;;;;3.98;1.72;;;13.00;71.90;;;;;;1920829;75;21058;-57
2022/05/07 13:47:10;;;;;;;7.40;3.00;;;13.00;71.50;;;;;;1921758;75;21010;-57
2022/05/07 13:49:39;;;;;;;9.15;3.00;;;13.00;71.80;;;;;;1921718;75;21092;-57
2022/05/07 13:52:09;;;;;;;7.10;3.10;;;12.90;71.90;;;;;;1921799;75;21007;-57
2022/05/07 13:54:40;;;;;;;2.77;1.77;;;13.00;72.10;;;;;;1921658;75;21092;-56